createdAt,value
2023-04-01T00:00:22.324Z,10.92
2023-04-01T00:05:44.233Z,10.86
2023-04-01T00:11:06.121Z,10.70
2023-04-01T00:16:28.068Z,10.63
2023-04-01T00:21:49.936Z,10.72
2023-04-01T00:27:11.816Z,10.67
2023-04-01T00:32:34.458Z,10.55
2023-04-01T00:37:56.634Z,10.60
2023-04-01T00:43:20.439Z,10.67
2023-04-01T00:48:49.124Z,10.72
2023-04-01T00:54:13.760Z,10.58
2023-04-01T00:59:42.286Z,10.65
2023-04-01T01:05:04.447Z,10.74
2023-04-01T01:10:33.623Z,10.77
2023-04-01T01:16:08.321Z,10.77
2023-04-01T01:21:48.314Z,10.83
2023-04-01T01:27:18.511Z,10.70
2023-04-01T01:33:20.956Z,10.69
2023-04-01T01:38:43.200Z,10.60
2023-04-01T01:44:07.864Z,10.62
2023-04-01T01:49:32.434Z,10.57
2023-04-01T01:54:56.959Z,10.69
2023-04-01T02:00:19.843Z,10.82
2023-04-01T02:05:41.914Z,10.85
2023-04-01T02:11:07.636Z,10.76
2023-04-01T02:16:29.561Z,10.67
2023-04-01T02:21:58.648Z,10.71
2023-04-01T02:27:21.239Z,10.67
2023-04-01T02:32:44.016Z,10.60
2023-04-01T02:38:06.537Z,10.63
2023-04-01T02:43:29.078Z,10.58
2023-04-01T02:48:51.080Z,10.55
2023-04-01T02:54:13.006Z,10.65
2023-04-01T02:59:34.921Z,10.50
2023-04-01T03:04:56.788Z,10.39
2023-04-01T03:10:18.757Z,10.31
2023-04-01T03:15:40.643Z,10.35
2023-04-01T03:21:17.864Z,10.28
2023-04-01T03:26:39.661Z,10.37
2023-04-01T03:32:01.556Z,10.37
2023-04-01T03:37:24.829Z,10.41
2023-04-01T03:42:47.286Z,10.43
2023-04-01T03:48:09.527Z,10.47
2023-04-01T03:53:31.368Z,10.40
2023-04-01T03:58:53.196Z,10.27
2023-04-01T04:04:15.179Z,10.23
2023-04-01T04:09:37.048Z,10.10
2023-04-01T04:14:59.036Z,10.19
2023-04-01T04:20:20.960Z,10.21
2023-04-01T04:25:42.839Z,10.23
2023-04-01T04:31:04.875Z,10.28
2023-04-01T04:36:26.757Z,10.18
2023-04-01T04:41:48.603Z,10.21
2023-04-01T04:47:10.492Z,10.30
2023-04-01T04:52:32.398Z,10.22
2023-04-01T04:57:54.394Z,10.42
2023-04-01T05:03:16.401Z,10.40
2023-04-01T05:08:38.796Z,10.34
2023-04-01T05:14:00.663Z,10.48
2023-04-01T05:19:22.662Z,10.39
2023-04-01T05:24:44.574Z,10.32
2023-04-01T05:30:07.099Z,10.42
2023-04-01T05:35:29.026Z,10.31
2023-04-01T05:40:50.908Z,10.43
2023-04-01T05:46:12.824Z,10.72
2023-04-01T05:51:34.757Z,11.13
2023-04-01T05:56:56.652Z,11.27
2023-04-01T06:02:19.165Z,11.34
2023-04-01T06:07:41.044Z,11.54
2023-04-01T06:13:23.710Z,13.33
2023-04-01T06:19:08.122Z,12.98
2023-04-01T06:24:52.642Z,12.25
2023-04-01T06:30:14.417Z,12.52
2023-04-01T06:36:12.729Z,12.49
2023-04-01T06:41:41.111Z,12.99
2023-04-01T06:47:15.948Z,13.12
2023-04-01T06:52:50.756Z,13.38
2023-04-01T06:58:30.955Z,13.29
2023-04-01T07:03:58.084Z,13.25
2023-04-01T07:09:37.859Z,13.64
2023-04-01T07:15:11.630Z,14.84
2023-04-01T07:20:37.653Z,14.79
2023-04-01T07:26:20.552Z,14.41
2023-04-01T07:32:08.325Z,13.53
2023-04-01T07:37:39.311Z,13.01
2023-04-01T07:43:23.421Z,12.50
2023-04-01T07:48:45.206Z,12.39
2023-04-01T07:54:18.312Z,12.43
2023-04-01T07:59:49.031Z,12.77
2023-04-01T08:05:30.085Z,13.35
2023-04-01T08:11:17.618Z,13.76
2023-04-01T08:16:54.518Z,15.82
2023-04-01T08:22:23.463Z,16.09
2023-04-01T08:27:52.204Z,15.79
2023-04-01T08:33:24.776Z,15.51
2023-04-01T08:39:00.421Z,14.34
2023-04-01T08:44:34.246Z,13.64
2023-04-01T08:50:23.743Z,13.33
2023-04-01T08:56:15.809Z,13.66
2023-04-01T09:02:03.853Z,13.51
2023-04-01T09:07:40.731Z,13.57
2023-04-01T09:13:11.421Z,13.69
2023-04-01T09:19:18.437Z,14.06
2023-04-01T09:24:52.042Z,14.59
2023-04-01T09:30:49.577Z,13.94
2023-04-01T09:36:31.619Z,13.15
2023-04-01T09:42:02.263Z,13.29
2023-04-01T09:47:27.109Z,13.15
2023-04-01T09:53:07.459Z,12.79
2023-04-01T09:58:43.608Z,12.99
2023-04-01T10:04:12.038Z,13.04
2023-04-01T10:10:00.287Z,13.17
2023-04-01T10:15:41.895Z,13.73
2023-04-01T10:21:30.773Z,13.49
2023-04-01T10:27:14.187Z,13.80
2023-04-01T10:33:17.152Z,13.76
2023-04-01T10:39:00.900Z,13.30
2023-04-01T10:44:47.259Z,13.60
2023-04-01T10:50:25.117Z,13.34
2023-04-01T10:56:11.719Z,14.36
2023-04-01T11:02:09.962Z,14.38
2023-04-01T11:08:04.761Z,14.60
2023-04-01T11:13:55.225Z,15.17
2023-04-01T11:19:32.004Z,14.60
2023-04-01T11:25:05.875Z,15.06
2023-04-01T11:30:42.840Z,15.59
2023-04-01T11:36:12.729Z,16.36
2023-04-01T11:41:46.592Z,16.24
2023-04-01T11:47:45.492Z,16.08
2023-04-01T11:53:24.121Z,15.49
2023-04-01T11:59:15.027Z,14.92
2023-04-01T12:04:44.426Z,14.86
2023-04-01T12:10:19.986Z,14.08
2023-04-01T12:16:09.815Z,14.59
2023-04-01T12:22:10.552Z,15.28
2023-04-01T12:27:51.922Z,15.52
2023-04-01T12:33:26.141Z,16.08
2023-04-01T12:39:09.435Z,15.73
2023-04-01T12:44:54.230Z,15.78
2023-04-01T12:50:37.986Z,16.05
2023-04-01T12:55:59.893Z,15.91
2023-04-01T13:01:51.013Z,16.21
2023-04-01T13:07:52.746Z,16.18
2023-04-01T13:13:32.875Z,16.09
2023-04-01T13:19:08.249Z,15.43
2023-04-01T13:24:57.856Z,15.32
2023-04-01T13:30:28.175Z,15.18
2023-04-01T13:35:56.043Z,14.82
2023-04-01T13:41:44.665Z,13.54
2023-04-01T13:47:09.348Z,13.19
2023-04-01T13:52:59.088Z,12.63
2023-04-01T13:58:44.050Z,12.86
2023-04-01T14:04:33.481Z,13.09
2023-04-01T14:10:25.699Z,12.83
2023-04-01T14:16:15.429Z,12.93
2023-04-01T14:22:02.496Z,12.64
2023-04-01T14:27:39.625Z,12.26
2023-04-01T14:33:13.642Z,12.51
2023-04-01T14:39:12.635Z,12.18
2023-04-01T14:44:46.596Z,11.80
2023-04-01T14:50:18.245Z,11.61
2023-04-01T14:55:40.080Z,11.44
2023-04-01T15:01:14.782Z,11.02
2023-04-01T15:07:17.763Z,10.78
2023-04-01T15:12:42.375Z,10.44
2023-04-01T15:18:27.441Z,10.20
2023-04-01T15:23:51.991Z,10.17
2023-04-01T15:29:16.717Z,10.22
2023-04-01T15:34:56.926Z,10.03
2023-04-01T15:40:42.484Z,10.17
2023-04-01T15:46:22.911Z,10.02
2023-04-01T15:52:03.639Z,9.95
2023-04-01T15:57:44.210Z,10.08
2023-04-01T16:03:35.857Z,10.00
2023-04-01T16:09:27.056Z,10.01
2023-04-01T16:14:57.888Z,9.96
2023-04-01T16:20:21.177Z,9.84
2023-04-01T16:25:50.463Z,9.64
2023-04-01T16:31:31.566Z,9.32
2023-04-01T16:37:01.601Z,9.28
2023-04-01T16:42:39.845Z,9.04
2023-04-01T16:48:12.991Z,9.14
2023-04-01T16:53:57.808Z,9.43
2023-04-01T16:59:40.795Z,9.17
2023-04-01T17:05:11.278Z,9.07
2023-04-01T17:11:05.386Z,9.17
2023-04-01T17:16:51.821Z,9.31
2023-04-01T17:22:19.401Z,8.96
2023-04-01T17:27:51.085Z,9.21
2023-04-01T17:33:15.612Z,9.29
2023-04-01T17:39:04.686Z,9.14
2023-04-01T17:44:45.062Z,9.14
2023-04-01T17:50:22.261Z,9.19
2023-04-01T17:55:50.120Z,9.25
2023-04-01T18:01:18.079Z,9.15
2023-04-01T18:06:45.938Z,9.27
2023-04-01T18:12:21.144Z,9.17
2023-04-01T18:17:48.669Z,9.37
2023-04-01T18:23:29.055Z,9.31
2023-04-01T18:29:12.028Z,9.18
2023-04-01T18:35:07.952Z,9.01
2023-04-01T18:40:37.718Z,8.87
2023-04-01T18:46:06.048Z,8.85
2023-04-01T18:51:39.437Z,8.75
2023-04-01T18:57:13.124Z,8.92
2023-04-01T19:02:49.597Z,8.93
2023-04-01T19:08:46.741Z,8.69
2023-04-01T19:14:29.754Z,9.00
2023-04-01T19:20:26.962Z,8.77
2023-04-01T19:26:27.359Z,8.81
2023-04-01T19:32:08.252Z,8.85
2023-04-01T19:37:40.727Z,8.78
2023-04-01T19:43:30.122Z,8.71
2023-04-01T19:49:15.607Z,8.78
2023-04-01T19:54:55.681Z,8.73
2023-04-01T20:00:35.601Z,8.76
2023-04-01T20:06:35.064Z,8.82
2023-04-01T20:12:05.881Z,8.56
2023-04-01T20:17:44.323Z,8.29
2023-04-01T20:23:27.074Z,8.38
2023-04-01T20:28:57.869Z,8.31
2023-04-01T20:34:38.522Z,8.40
2023-04-01T20:40:33.025Z,8.29
2023-04-01T20:46:02.612Z,8.44
2023-04-01T20:51:30.259Z,8.24
2023-04-01T20:57:17.972Z,8.04
2023-04-01T21:02:52.263Z,8.13
2023-04-01T21:08:35.509Z,8.09
2023-04-01T21:14:26.319Z,8.23
2023-04-01T21:20:02.334Z,8.09
2023-04-01T21:25:33.358Z,8.05
2023-04-01T21:31:05.133Z,8.11
2023-04-01T21:36:50.821Z,8.25
2023-04-01T21:42:30.853Z,8.02
2023-04-01T21:48:30.351Z,8.10
2023-04-01T21:54:33.838Z,8.24
2023-04-01T22:00:04.606Z,8.16
2023-04-01T22:05:58.103Z,8.12
2023-04-01T22:11:19.884Z,8.08
2023-04-01T22:17:35.798Z,7.72
2023-04-01T22:23:21.946Z,7.86
2023-04-01T22:28:56.332Z,7.79
2023-04-01T22:34:30.010Z,7.63
2023-04-01T22:40:31.092Z,7.60
2023-04-01T22:46:19.184Z,7.55
2023-04-01T22:51:58.743Z,7.51
2023-04-01T22:57:41.943Z,7.20
2023-04-01T23:03:06.569Z,7.33
2023-04-01T23:08:53.367Z,7.39
2023-04-01T23:14:21.243Z,7.18
2023-04-01T23:20:07.719Z,7.41
2023-04-01T23:25:44.309Z,7.33
2023-04-01T23:31:27.955Z,7.22
2023-04-01T23:36:53.199Z,7.08
2023-04-01T23:42:19.481Z,7.35
2023-04-01T23:47:42.031Z,7.13
2023-04-01T23:53:16.059Z,7.26
2023-04-01T23:58:46.576Z,7.18
